Time,TemperatureF,DewpointF,PressureIn,WindDirection,WindDirectionDegrees,WindSpeedMPH,WindSpeedGustMPH,Humidity,HourlyPrecipIn,Conditions,Clouds,dailyrainin,SoftwareType,DateUTC
2013-07-20 00:12:00,85.1,67.0,29.80,ESE,114,0.0,0.0,55,0.00,,,0.00,weatherlink.com 1.10,2013-07-20 05:12:00,
2013-07-20 00:27:00,84.5,68.0,29.80,NNW,327,0.0,1.0,57,0.00,,,0.00,weatherlink.com 1.10,2013-07-20 05:27:00,
2013-07-20 00:42:00,83.6,68.0,29.79,NNW,327,0.0,0.0,59,0.00,,,0.00,weatherlink.com 1.10,2013-07-20 05:42:00,
2013-07-20 00:57:00,82.7,67.0,29.79,NNW,328,0.0,0.0,60,0.00,,,0.00,weatherlink.com 1.10,2013-07-20 05:57:00,
2013-07-20 01:12:00,82.1,68.0,29.80,NNW,329,0.0,0.0,62,0.00,,,0.00,weatherlink.com 1.10,2013-07-20 06:12:00,
2013-07-20 01:27:00,81.7,67.0,29.79,NNW,335,0.0,0.0,62,0.00,,,0.00,weatherlink.com 1.10,2013-07-20 06:27:00,
2013-07-20 01:42:00,81.1,67.0,29.80,NNW,334,0.0,0.0,63,0.00,,,0.00,weatherlink.com 1.10,2013-07-20 06:42:00,
2013-07-20 01:57:00,80.6,67.0,29.80,NNW,335,0.0,0.0,64,0.00,,,0.00,weatherlink.com 1.10,2013-07-20 06:57:00,
2013-07-20 02:12:00,80.0,68.0,29.79,NNW,335,0.0,0.0,66,0.00,,,0.00,weatherlink.com 1.10,2013-07-20 07:12:00,
2013-07-20 02:27:00,79.6,67.0,29.79,NNW,334,0.0,0.0,66,0.00,,,0.00,weatherlink.com 1.10,2013-07-20 07:27:00,
2013-07-20 02:42:00,79.4,67.0,29.79,NNW,335,0.0,0.0,67,0.00,,,0.00,weatherlink.com 1.10,2013-07-20 07:42:00,
2013-07-20 02:57:00,79.3,67.0,29.79,NNW,335,0.0,0.0,66,0.00,,,0.00,weatherlink.com 1.10,2013-07-20 07:57:00,
2013-07-20 03:12:00,78.7,67.0,29.79,NNW,334,0.0,0.0,67,0.00,,,0.00,weatherlink.com 1.10,2013-07-20 08:12:00,
2013-07-20 03:27:00,77.9,67.0,29.79,NNW,334,0.0,0.0,69,0.00,,,0.00,weatherlink.com 1.10,2013-07-20 08:27:00,
2013-07-20 03:42:00,77.4,67.0,29.79,NNW,335,0.0,0.0,71,0.00,,,0.00,weatherlink.com 1.10,2013-07-20 08:42:00,
2013-07-20 03:57:00,77.0,67.0,29.79,NNW,335,0.0,0.0,72,0.00,,,0.00,weatherlink.com 1.10,2013-07-20 08:57:00,
2013-07-20 04:12:00,76.7,68.0,29.79,NNW,335,0.0,0.0,74,0.00,,,0.00,weatherlink.com 1.10,2013-07-20 09:12:00,
2013-07-20 04:27:00,76.7,67.0,29.79,NNW,335,0.0,0.0,73,0.00,,,0.00,weatherlink.com 1.10,2013-07-20 09:27:00,
2013-07-20 04:42:00,76.7,68.0,29.79,NNW,335,0.0,0.0,74,0.00,,,0.00,weatherlink.com 1.10,2013-07-20 09:42:00,
2013-07-20 04:57:00,76.8,68.0,29.80,NNW,335,0.0,0.0,74,0.00,,,0.00,weatherlink.com 1.10,2013-07-20 09:57:00,
2013-07-20 05:12:00,76.7,68.0,29.80,NNW,335,0.0,0.0,74,0.00,,,0.00,weatherlink.com 1.10,2013-07-20 10:12:00,
2013-07-20 05:28:00,76.3,68.0,29.80,NNW,334,0.0,0.0,75,0.00,,,0.00,weatherlink.com 1.10,2013-07-20 10:28:00,
2013-07-20 05:43:00,76.9,68.0,29.81,East,88,0.0,1.0,75,0.00,,,0.00,weatherlink.com 1.10,2013-07-20 10:43:00,
2013-07-20 05:58:00,76.8,68.0,29.80,SE,143,0.0,1.0,75,0.00,,,0.00,weatherlink.com 1.10,2013-07-20 10:58:00,
2013-07-20 06:13:00,76.7,69.0,29.81,ESE,121,0.0,1.0,76,0.00,,,0.00,weatherlink.com 1.10,2013-07-20 11:13:00,
2013-07-20 06:28:00,76.6,69.0,29.82,NNW,336,0.0,0.0,76,0.00,,,0.00,weatherlink.com 1.10,2013-07-20 11:28:00,
2013-07-20 06:43:00,76.7,68.0,29.82,East,101,0.0,0.0,75,0.00,,,0.00,weatherlink.com 1.10,2013-07-20 11:43:00,
2013-07-20 06:58:00,77.3,68.0,29.82,East,98,0.0,0.0,74,0.00,,,0.00,weatherlink.com 1.10,2013-07-20 11:58:00,
2013-07-20 07:13:00,77.9,68.0,29.82,NNW,329,0.0,4.0,72,0.00,,,0.00,weatherlink.com 1.10,2013-07-20 12:13:00,
2013-07-20 07:28:00,78.6,69.0,29.83,ESE,105,0.0,1.0,73,0.00,,,0.00,weatherlink.com 1.10,2013-07-20 12:28:00,
2013-07-20 07:43:00,79.6,69.0,29.84,East,99,0.0,1.0,71,0.00,,,0.00,weatherlink.com 1.10,2013-07-20 12:43:00,
2013-07-20 07:58:00,79.6,69.0,29.83,ESE,121,0.0,2.0,69,0.00,,,0.00,weatherlink.com 1.10,2013-07-20 12:58:00,
2013-07-20 08:13:00,78.9,70.0,29.84,ESE,119,0.0,3.0,73,0.00,,,0.00,weatherlink.com 1.10,2013-07-20 13:13:00,
2013-07-20 08:28:00,78.3,70.0,29.84,East,93,0.0,1.0,75,0.00,,,0.00,weatherlink.com 1.10,2013-07-20 13:28:00,
2013-07-20 08:43:00,77.7,69.0,29.84,NNW,328,0.0,2.0,74,0.00,,,0.00,weatherlink.com 1.10,2013-07-20 13:43:00,
2013-07-20 08:58:00,77.5,69.0,29.84,NW,312,0.0,1.0,74,0.00,,,0.00,weatherlink.com 1.10,2013-07-20 13:58:00,
2013-07-20 09:13:00,77.9,69.0,29.84,NW,311,0.0,0.0,73,0.00,,,0.00,weatherlink.com 1.10,2013-07-20 14:13:00,
2013-07-20 09:28:00,78.1,69.0,29.83,NW,311,0.0,0.0,73,0.00,,,0.00,weatherlink.com 1.10,2013-07-20 14:28:00,
2013-07-20 09:43:00,78.1,70.0,29.83,NW,315,0.0,1.0,75,0.00,,,0.00,weatherlink.com 1.10,2013-07-20 14:43:00,
2013-07-20 09:58:00,77.8,70.0,29.82,NW,315,0.0,0.0,76,0.00,,,0.00,weatherlink.com 1.10,2013-07-20 14:58:00,
2013-07-20 10:13:00,77.9,71.0,29.82,NW,311,0.0,0.0,78,0.00,,,0.00,weatherlink.com 1.10,2013-07-20 15:13:00,
2013-07-20 10:28:00,78.9,70.0,29.83,NW,311,0.0,0.0,73,0.00,,,0.00,weatherlink.com 1.10,2013-07-20 15:28:00,
2013-07-20 10:43:00,79.3,69.0,29.84,WNW,303,0.0,2.0,71,0.00,,,0.00,weatherlink.com 1.10,2013-07-20 15:43:00,
2013-07-20 10:58:00,80.0,71.0,29.84,WNW,303,0.0,0.0,75,0.00,,,0.00,weatherlink.com 1.10,2013-07-20 15:58:00,
2013-07-20 11:13:00,81.2,71.0,29.84,NW,318,0.0,2.0,70,0.00,,,0.00,weatherlink.com 1.10,2013-07-20 16:13:00,
2013-07-20 11:28:00,82.7,71.0,29.83,NNW,339,0.0,3.0,67,0.00,,,0.00,weatherlink.com 1.10,2013-07-20 16:28:00,
2013-07-20 11:43:00,83.3,70.0,29.83,NNW,328,0.0,0.0,64,0.00,,,0.00,weatherlink.com 1.10,2013-07-20 16:43:00,
2013-07-20 11:58:00,83.6,70.0,29.83,NW,305,0.0,1.0,63,0.00,,,0.00,weatherlink.com 1.10,2013-07-20 16:58:00,
2013-07-20 12:13:00,84.2,69.0,29.82,NW,305,0.0,0.0,61,0.00,,,0.00,weatherlink.com 1.10,2013-07-20 17:13:00,
2013-07-20 12:28:00,85.1,72.0,29.82,SE,131,0.0,0.0,65,0.00,,,0.00,weatherlink.com 1.10,2013-07-20 17:28:00,
2013-07-20 12:43:00,87.4,72.0,29.82,SSE,155,0.0,1.0,60,0.00,,,0.00,weatherlink.com 1.10,2013-07-20 17:43:00,
2013-07-20 12:58:00,87.8,71.0,29.82,SE,134,0.0,0.0,57,0.00,,,0.00,weatherlink.com 1.10,2013-07-20 17:58:00,
2013-07-20 13:13:00,87.7,71.0,29.81,SSE,158,0.0,1.0,58,0.00,,,0.00,weatherlink.com 1.10,2013-07-20 18:13:00,
2013-07-20 13:28:00,87.4,72.0,29.82,SE,125,0.0,0.0,60,0.00,,,0.00,weatherlink.com 1.10,2013-07-20 18:28:00,
2013-07-20 13:43:00,87.6,72.0,29.81,SE,125,0.0,0.0,61,0.00,,,0.00,weatherlink.com 1.10,2013-07-20 18:43:00,
2013-07-20 13:58:00,87.8,73.0,29.81,ESE,115,0.0,1.0,62,0.00,,,0.00,weatherlink.com 1.10,2013-07-20 18:58:00,
2013-07-20 14:32:00,89.3,74.0,29.80,North,359,0.0,1.0,61,0.00,,,0.00,weatherlink.com 1.10,2013-07-20 19:32:00,
2013-07-20 14:43:00,91.0,73.0,29.80,NNW,336,0.0,1.0,56,0.00,,,0.00,weatherlink.com 1.10,2013-07-20 19:43:00,
2013-07-20 14:58:00,91.1,74.0,29.80,East,99,0.0,6.0,58,0.00,,,0.00,weatherlink.com 1.10,2013-07-20 19:58:00,
2013-07-20 15:33:00,88.5,73.0,29.81,WNW,301,0.0,3.0,61,0.00,,,0.00,weatherlink.com 1.10,2013-07-20 20:33:00,
2013-07-20 15:43:00,87.6,73.0,29.81,NNW,337,1.0,3.0,62,0.00,,,0.00,weatherlink.com 1.10,2013-07-20 20:43:00,
2013-07-20 15:58:00,86.2,72.0,29.80,NW,321,0.0,2.0,63,0.00,,,0.00,weatherlink.com 1.10,2013-07-20 20:58:00,
2013-07-20 16:13:00,85.0,70.0,29.80,SE,124,0.0,2.0,61,0.00,,,0.00,weatherlink.com 1.10,2013-07-20 21:13:00,
2013-07-20 16:28:00,84.6,69.0,29.80,WNW,295,2.0,2.0,60,0.00,,,0.00,weatherlink.com 1.10,2013-07-20 21:28:00,
2013-07-20 16:43:00,84.2,70.0,29.79,NW,324,1.0,1.0,62,0.00,,,0.00,weatherlink.com 1.10,2013-07-20 21:43:00,
2013-07-20 16:58:00,83.7,71.0,29.79,West,271,0.0,0.0,66,0.00,,,0.00,weatherlink.com 1.10,2013-07-20 21:58:00,
2013-07-20 17:13:00,82.8,71.0,29.79,WSW,243,0.0,1.0,68,0.00,,,0.00,weatherlink.com 1.10,2013-07-20 22:13:00,
2013-07-20 17:28:00,82.1,72.0,29.79,ENE,62,0.0,2.0,71,0.00,,,0.00,weatherlink.com 1.10,2013-07-20 22:28:00,
2013-07-20 17:58:00,81.3,71.0,29.78,NW,311,0.0,1.0,72,0.00,,,0.00,weatherlink.com 1.10,2013-07-20 22:58:00,
2013-07-20 18:13:00,80.5,72.0,29.78,South,186,0.0,0.0,75,0.00,,,0.00,weatherlink.com 1.10,2013-07-20 23:13:00,
2013-07-20 18:28:00,79.7,72.0,29.78,South,186,0.0,0.0,76,0.00,,,0.00,weatherlink.com 1.10,2013-07-20 23:28:00,
2013-07-20 18:58:00,79.4,72.0,29.77,South,184,0.0,0.0,78,0.00,,,0.00,weatherlink.com 1.10,2013-07-20 23:58:00,
2013-07-20 19:13:00,79.6,72.0,29.77,ESE,113,0.0,1.0,78,0.00,,,0.00,weatherlink.com 1.10,2013-07-21 00:13:00,
2013-07-20 19:28:00,79.6,73.0,29.77,SSE,159,0.0,1.0,79,0.00,,,0.00,weatherlink.com 1.10,2013-07-21 00:28:00,
2013-07-20 19:44:00,79.4,72.0,29.77,SSE,166,0.0,1.0,79,0.00,,,0.00,weatherlink.com 1.10,2013-07-21 00:44:00,
2013-07-20 19:59:00,79.1,72.0,29.77,SE,135,0.0,0.0,80,0.00,,,0.00,weatherlink.com 1.10,2013-07-21 00:59:00,
2013-07-20 20:14:00,78.9,72.0,29.77,SE,135,0.0,0.0,80,0.00,,,0.00,weatherlink.com 1.10,2013-07-21 01:14:00,
2013-07-20 20:29:00,78.6,72.0,29.78,SE,136,0.0,0.0,81,0.00,,,0.00,weatherlink.com 1.10,2013-07-21 01:29:00,
2013-07-20 20:44:00,78.3,72.0,29.79,SE,136,0.0,0.0,82,0.00,,,0.00,weatherlink.com 1.10,2013-07-21 01:44:00,
2013-07-20 20:59:00,78.3,73.0,29.79,SE,136,0.0,0.0,83,0.00,,,0.00,weatherlink.com 1.10,2013-07-21 01:59:00,
2013-07-20 21:29:00,77.8,72.0,29.80,SE,136,0.0,0.0,83,0.00,,,0.00,weatherlink.com 1.10,2013-07-21 02:29:00,
2013-07-20 21:44:00,77.7,72.0,29.80,SE,135,0.0,0.0,83,0.00,,,0.00,weatherlink.com 1.10,2013-07-21 02:44:00,
2013-07-20 22:29:00,77.5,72.0,29.81,SE,135,0.0,0.0,84,0.00,,,0.00,weatherlink.com 1.10,2013-07-21 03:29:00,
2013-07-20 22:44:00,77.5,72.0,29.81,SE,135,0.0,0.0,84,0.00,,,0.00,weatherlink.com 1.10,2013-07-21 03:44:00,
2013-07-20 22:59:00,77.5,73.0,29.81,SE,135,0.0,0.0,85,0.00,,,0.00,weatherlink.com 1.10,2013-07-21 03:59:00,
2013-07-20 23:14:00,77.4,73.0,29.81,SE,136,0.0,0.0,85,0.00,,,0.00,weatherlink.com 1.10,2013-07-21 04:14:00,
2013-07-20 23:29:00,77.5,73.0,29.82,SE,135,0.0,0.0,85,0.00,,,0.00,weatherlink.com 1.10,2013-07-21 04:29:00,
2013-07-20 23:44:00,77.4,73.0,29.83,SE,135,0.0,0.0,85,0.00,,,0.00,weatherlink.com 1.10,2013-07-21 04:44:00,
2013-07-20 23:59:00,77.6,73.0,29.83,SE,135,0.0,0.0,85,0.00,,,0.00,weatherlink.com 1.10,2013-07-21 04:59:00,